createdAt,value
2023-01-22T00:00:36.052Z,8.13
2023-01-22T00:03:21.482Z,8.80
2023-01-22T00:06:07.895Z,8.48
2023-01-22T00:08:54.194Z,7.97
2023-01-22T00:11:39.378Z,7.55
2023-01-22T00:14:24.866Z,7.72
2023-01-22T00:17:10.456Z,7.80
2023-01-22T00:19:55.663Z,7.50
2023-01-22T00:22:40.991Z,7.50
2023-01-22T00:25:26.285Z,7.32
2023-01-22T00:28:12.927Z,7.53
2023-01-22T00:31:00.518Z,7.10
2023-01-22T00:33:47.081Z,6.15
2023-01-22T00:36:32.578Z,6.38
2023-01-22T00:39:17.762Z,6.53
2023-01-22T00:42:03.320Z,6.40
2023-01-22T00:44:50.260Z,6.22
2023-01-22T00:47:35.873Z,6.57
2023-01-22T00:50:21.469Z,6.63
2023-01-22T00:53:07.110Z,6.95
2023-01-22T00:55:58.861Z,7.07
2023-01-22T00:58:44.183Z,6.43
2023-01-22T01:01:29.701Z,6.80
2023-01-22T01:04:16.153Z,6.22
2023-01-22T01:07:01.822Z,6.40
2023-01-22T01:09:47.241Z,6.97
2023-01-22T01:12:32.962Z,7.13
2023-01-22T01:15:18.548Z,6.90
2023-01-22T01:18:04.263Z,6.80
2023-01-22T01:20:54.946Z,7.18
2023-01-22T01:23:40.647Z,6.50
2023-01-22T01:26:26.281Z,7.00
2023-01-22T01:29:13.303Z,7.18
2023-01-22T01:31:58.844Z,7.10
2023-01-22T01:34:45.591Z,7.22
2023-01-22T01:37:30.912Z,7.50
2023-01-22T01:40:16.864Z,7.22
2023-01-22T01:43:02.700Z,6.93
2023-01-22T01:45:48.265Z,7.25
2023-01-22T01:48:40.856Z,7.22
2023-01-22T01:51:35.601Z,7.30
2023-01-22T01:54:21.059Z,7.38
2023-01-22T01:57:14.961Z,7.63
2023-01-22T02:00:01.153Z,8.10
2023-01-22T02:02:47.004Z,7.40
2023-01-22T02:05:38.386Z,7.60
2023-01-22T02:08:25.711Z,7.15
2023-01-22T02:11:11.775Z,7.28
2023-01-22T02:14:10.211Z,8.23
2023-01-22T02:17:11.716Z,7.95
2023-01-22T02:19:57.264Z,7.95
2023-01-22T02:22:42.728Z,7.35
2023-01-22T02:25:28.362Z,7.93
2023-01-22T02:28:13.693Z,7.75
2023-01-22T02:31:00.185Z,7.60
2023-01-22T02:33:46.044Z,7.40
2023-01-22T02:36:34.152Z,6.90
2023-01-22T02:39:19.293Z,7.15
2023-01-22T02:42:06.224Z,7.32
2023-01-22T02:44:52.872Z,6.85
2023-01-22T02:47:38.485Z,6.85
2023-01-22T02:50:24.666Z,7.05
2023-01-22T02:53:10.068Z,6.87
2023-01-22T02:55:55.943Z,6.30
2023-01-22T02:58:41.492Z,6.65
2023-01-22T03:01:26.803Z,6.45
2023-01-22T03:04:12.742Z,6.65
2023-01-22T03:06:59.511Z,6.50
2023-01-22T03:09:47.403Z,6.18
2023-01-22T03:12:51.475Z,6.55
2023-01-22T03:15:58.557Z,6.40
2023-01-22T03:19:02.359Z,6.03
2023-01-22T03:21:47.702Z,5.88
2023-01-22T03:24:32.972Z,5.75
2023-01-22T03:27:20.728Z,5.38
2023-01-22T03:30:06.553Z,5.45
2023-01-22T03:32:54.170Z,5.82
2023-01-22T03:35:39.666Z,5.47
2023-01-22T03:38:35.674Z,5.60
2023-01-22T03:41:21.703Z,4.95
2023-01-22T03:44:12.014Z,4.93
2023-01-22T03:46:57.882Z,4.80
2023-01-22T03:49:43.617Z,4.80
2023-01-22T03:52:28.712Z,4.70
2023-01-22T03:55:14.357Z,4.90
2023-01-22T03:57:59.864Z,4.90
2023-01-22T04:00:45.312Z,4.70
2023-01-22T04:03:31.358Z,5.30
2023-01-22T04:06:18.238Z,5.35
2023-01-22T04:09:04.018Z,4.60
2023-01-22T04:11:55.243Z,5.00
2023-01-22T04:14:40.520Z,5.22
2023-01-22T04:17:26.877Z,5.50
2023-01-22T04:20:42.501Z,5.32
2023-01-22T04:23:41.124Z,6.30
2023-01-22T04:26:26.866Z,6.38
2023-01-22T04:29:13.821Z,6.50
2023-01-22T04:31:59.275Z,6.65
2023-01-22T04:35:04.446Z,6.70
2023-01-22T04:38:03.122Z,6.38
2023-01-22T04:40:48.558Z,6.53
2023-01-22T04:43:34.080Z,6.40
2023-01-22T04:46:21.125Z,6.65
2023-01-22T04:49:06.504Z,6.55
2023-01-22T04:51:53.977Z,7.22
2023-01-22T04:54:38.910Z,7.30
2023-01-22T04:57:24.268Z,7.18
2023-01-22T05:00:10.946Z,7.50
2023-01-22T05:02:58.103Z,7.10
2023-01-22T05:05:44.457Z,7.25
2023-01-22T05:08:30.572Z,6.45
2023-01-22T05:11:16.176Z,7.90
2023-01-22T05:14:15.893Z,6.57
2023-01-22T05:17:02.776Z,5.88
2023-01-22T05:19:48.351Z,5.55
2023-01-22T05:22:37.553Z,5.43
2023-01-22T05:25:23.553Z,5.30
2023-01-22T05:28:09.010Z,5.63
2023-01-22T05:31:29.921Z,5.03
2023-01-22T05:34:19.653Z,4.82
2023-01-22T05:37:05.720Z,4.72
2023-01-22T05:39:53.301Z,4.63
2023-01-22T05:42:39.057Z,3.65
2023-01-22T05:45:26.523Z,3.88
2023-01-22T05:48:33.144Z,3.35
2023-01-22T05:51:32.064Z,3.20
2023-01-22T05:54:18.108Z,3.75
2023-01-22T05:57:05.230Z,3.58
2023-01-22T05:59:51.025Z,3.20
2023-01-22T06:02:36.479Z,3.40
2023-01-22T06:05:21.972Z,3.50
2023-01-22T06:08:15.918Z,3.55
2023-01-22T06:11:12.040Z,3.60
2023-01-22T06:13:57.953Z,3.20
2023-01-22T06:16:43.408Z,2.92
2023-01-22T06:19:47.832Z,3.15
2023-01-22T06:22:36.892Z,3.10
2023-01-22T06:25:22.110Z,3.20
2023-01-22T06:28:28.880Z,3.53
2023-01-22T06:31:14.993Z,3.90
2023-01-22T06:34:00.797Z,3.88
2023-01-22T06:36:46.329Z,3.58
2023-01-22T06:39:32.784Z,3.40
2023-01-22T06:42:23.388Z,2.92
2023-01-22T06:45:10.114Z,3.00
2023-01-22T06:47:57.287Z,2.95
2023-01-22T06:50:43.307Z,3.38
2023-01-22T06:53:28.729Z,3.20
2023-01-22T06:56:14.204Z,3.63
2023-01-22T06:58:59.483Z,3.50
2023-01-22T07:01:44.900Z,3.50
2023-01-22T07:04:30.509Z,3.67
2023-01-22T07:07:15.673Z,4.25
2023-01-22T07:10:01.738Z,4.13
2023-01-22T07:12:47.707Z,4.00
2023-01-22T07:15:33.078Z,4.07
2023-01-22T07:18:20.925Z,3.97
2023-01-22T07:21:06.528Z,4.38
2023-01-22T07:23:51.948Z,4.13
2023-01-22T07:26:38.684Z,3.97
2023-01-22T07:29:23.903Z,3.95
2023-01-22T07:32:09.615Z,4.07
2023-01-22T07:34:54.952Z,3.85
2023-01-22T07:37:40.593Z,4.00
2023-01-22T07:40:26.817Z,3.92
2023-01-22T07:43:14.955Z,3.60
2023-01-22T07:46:04.768Z,4.32
2023-01-22T07:48:50.368Z,4.15
2023-01-22T07:51:35.833Z,3.95
2023-01-22T07:54:21.763Z,4.28
2023-01-22T07:57:07.432Z,4.32
2023-01-22T07:59:52.816Z,4.38
2023-01-22T08:02:38.356Z,4.38
2023-01-22T08:05:23.981Z,4.22
2023-01-22T08:08:18.216Z,4.38
2023-01-22T08:11:03.624Z,4.18
2023-01-22T08:13:48.909Z,4.43
2023-01-22T08:16:35.689Z,4.10
2023-01-22T08:19:21.193Z,4.03
2023-01-22T08:22:06.954Z,4.50
2023-01-22T08:24:54.052Z,4.35
2023-01-22T08:27:39.282Z,4.03
2023-01-22T08:30:24.593Z,4.57
2023-01-22T08:33:10.639Z,3.85
2023-01-22T08:35:56.018Z,4.18
2023-01-22T08:38:41.579Z,4.10
2023-01-22T08:41:27.100Z,4.30
2023-01-22T08:44:13.431Z,4.72
2023-01-22T08:46:58.923Z,3.90
2023-01-22T08:49:44.334Z,4.53
2023-01-22T08:52:29.597Z,4.38
2023-01-22T08:55:14.936Z,4.45
2023-01-22T08:58:00.154Z,4.47
2023-01-22T09:00:45.621Z,4.30
2023-01-22T09:03:31.261Z,4.00
2023-01-22T09:06:16.434Z,4.32
2023-01-22T09:09:02.440Z,4.43
2023-01-22T09:11:47.806Z,3.97
2023-01-22T09:14:33.254Z,4.35
2023-01-22T09:17:18.805Z,4.43
2023-01-22T09:20:04.659Z,4.20
2023-01-22T09:22:50.175Z,4.35
2023-01-22T09:25:35.557Z,3.88
2023-01-22T09:28:20.976Z,4.18
2023-01-22T09:31:06.736Z,4.22
2023-01-22T09:33:52.165Z,4.03
2023-01-22T09:36:37.657Z,4.30
2023-01-22T09:39:23.173Z,4.35
2023-01-22T09:42:15.923Z,4.18
2023-01-22T09:45:06.953Z,4.20
2023-01-22T09:47:55.959Z,4.45
2023-01-22T09:50:41.586Z,4.07
2023-01-22T09:53:26.763Z,4.88
2023-01-22T09:56:21.087Z,4.63
2023-01-22T09:59:11.275Z,4.03
2023-01-22T10:02:01.824Z,4.07
2023-01-22T10:04:49.977Z,4.00
2023-01-22T10:07:39.814Z,3.80
2023-01-22T10:10:27.440Z,3.97
2023-01-22T10:13:25.337Z,4.10
2023-01-22T10:16:12.488Z,4.05
2023-01-22T10:19:04.216Z,3.65
2023-01-22T10:21:59.608Z,4.00
2023-01-22T10:24:45.068Z,3.67
2023-01-22T10:27:42.029Z,3.97
2023-01-22T10:30:28.828Z,3.97
2023-01-22T10:33:20.389Z,3.30
2023-01-22T10:36:07.381Z,3.20
2023-01-22T10:39:08.597Z,3.30
2023-01-22T10:42:01.900Z,3.17
2023-01-22T10:44:47.650Z,3.80
2023-01-22T10:47:32.725Z,3.17
2023-01-22T10:50:19.758Z,3.70
2023-01-22T10:53:23.598Z,3.63
2023-01-22T10:56:12.758Z,3.20
2023-01-22T10:59:02.173Z,3.42
2023-01-22T11:01:48.487Z,3.50
2023-01-22T11:04:34.086Z,3.22
2023-01-22T11:07:30.470Z,3.75
2023-01-22T11:10:25.297Z,3.63
2023-01-22T11:13:19.777Z,3.53
2023-01-22T11:16:12.339Z,3.72
2023-01-22T11:19:18.111Z,4.10
2023-01-22T11:22:19.807Z,3.65
2023-01-22T11:25:10.280Z,3.92
2023-01-22T11:28:12.320Z,3.78
2023-01-22T11:31:08.739Z,3.70
2023-01-22T11:34:31.665Z,3.63
2023-01-22T11:37:34.995Z,3.78
2023-01-22T11:40:38.962Z,3.63
2023-01-22T11:43:40.155Z,3.80
2023-01-22T11:46:43.402Z,3.63
2023-01-22T11:50:10.472Z,3.58
2023-01-22T11:53:40.862Z,3.85
2023-01-22T11:56:44.255Z,3.80
2023-01-22T12:00:10.269Z,4.13
2023-01-22T12:03:15.816Z,4.32
2023-01-22T12:06:40.746Z,5.30
2023-01-22T12:09:59.394Z,3.75
2023-01-22T12:12:55.545Z,4.15
2023-01-22T12:15:41.159Z,4.30
2023-01-22T12:19:05.326Z,3.50
2023-01-22T12:21:59.964Z,3.95
2023-01-22T12:24:49.944Z,3.65
2023-01-22T12:27:40.749Z,4.10
2023-01-22T12:30:50.261Z,3.63
2023-01-22T12:33:40.498Z,3.78
2023-01-22T12:36:28.366Z,3.60
2023-01-22T12:39:28.119Z,4.07
2023-01-22T12:42:24.517Z,3.60
2023-01-22T12:45:45.215Z,3.65
2023-01-22T12:48:45.841Z,3.67
2023-01-22T12:51:43.327Z,3.97
2023-01-22T12:54:33.481Z,4.07
2023-01-22T12:57:21.668Z,4.25
2023-01-22T13:00:22.416Z,4.05
2023-01-22T13:03:31.963Z,4.50
2023-01-22T13:06:30.075Z,4.18
2023-01-22T13:09:27.360Z,4.10
2023-01-22T13:12:27.355Z,4.22
2023-01-22T13:15:33.735Z,4.45
2023-01-22T13:18:27.599Z,4.35
2023-01-22T13:21:17.238Z,4.35
2023-01-22T13:24:12.695Z,4.53
2023-01-22T13:27:00.609Z,5.03
2023-01-22T13:29:46.485Z,5.10
2023-01-22T13:32:32.040Z,4.72
2023-01-22T13:35:19.770Z,5.38
2023-01-22T13:38:05.604Z,5.40
2023-01-22T13:41:05.823Z,4.90
2023-01-22T13:43:51.109Z,5.07
2023-01-22T13:46:37.950Z,5.55
2023-01-22T13:49:29.791Z,5.95
2023-01-22T13:52:20.198Z,6.05
2023-01-22T13:55:15.869Z,6.28
2023-01-22T13:58:04.216Z,6.47
2023-01-22T14:00:52.678Z,6.10
2023-01-22T14:03:39.888Z,6.45
2023-01-22T14:06:25.422Z,5.90
2023-01-22T14:09:10.819Z,5.68
2023-01-22T14:11:56.795Z,5.80
2023-01-22T14:14:43.266Z,6.00
2023-01-22T14:17:34.262Z,6.38
2023-01-22T14:20:20.251Z,6.63
2023-01-22T14:23:07.240Z,6.07
2023-01-22T14:25:55.804Z,5.55
2023-01-22T14:28:41.289Z,5.50
2023-01-22T14:31:27.053Z,5.90
2023-01-22T14:34:12.558Z,6.13
2023-01-22T14:36:57.584Z,5.75
2023-01-22T14:39:43.030Z,5.97
2023-01-22T14:42:28.309Z,5.88
2023-01-22T14:45:16.709Z,5.53
2023-01-22T14:48:03.936Z,5.40
2023-01-22T14:50:50.038Z,5.70
2023-01-22T14:53:35.810Z,5.60
2023-01-22T14:56:21.295Z,5.50
2023-01-22T14:59:06.863Z,5.63
2023-01-22T15:01:52.441Z,6.03
2023-01-22T15:04:42.433Z,6.57
2023-01-22T15:07:27.845Z,6.30
2023-01-22T15:10:13.307Z,6.18
2023-01-22T15:12:58.845Z,5.43
2023-01-22T15:15:44.587Z,5.93
2023-01-22T15:18:30.002Z,5.90
2023-01-22T15:21:15.332Z,6.00
2023-01-22T15:24:01.641Z,7.07
2023-01-22T15:26:46.853Z,5.63
2023-01-22T15:29:32.383Z,6.88
2023-01-22T15:32:17.878Z,6.20
2023-01-22T15:35:03.347Z,6.03
2023-01-22T15:37:49.186Z,7.25
2023-01-22T15:40:37.653Z,5.78
2023-01-22T15:43:22.767Z,6.45
2023-01-22T15:46:08.369Z,6.35
2023-01-22T15:48:54.208Z,6.45
2023-01-22T15:51:40.828Z,6.70
2023-01-22T15:54:26.882Z,7.07
2023-01-22T15:57:13.275Z,6.90
2023-01-22T15:59:58.686Z,6.68
2023-01-22T16:02:44.565Z,6.90
2023-01-22T16:05:31.237Z,7.20
2023-01-22T16:08:16.923Z,7.00
2023-01-22T16:11:02.446Z,7.30
2023-01-22T16:13:48.366Z,6.80
2023-01-22T16:16:36.376Z,6.82
2023-01-22T16:19:22.064Z,6.82
2023-01-22T16:22:07.473Z,6.40
2023-01-22T16:24:53.089Z,6.07
2023-01-22T16:27:38.967Z,6.68
2023-01-22T16:30:24.448Z,7.13
2023-01-22T16:33:21.944Z,6.50
2023-01-22T16:36:10.018Z,7.00
2023-01-22T16:38:55.240Z,6.30
2023-01-22T16:41:40.918Z,6.97
2023-01-22T16:44:27.313Z,7.07
2023-01-22T16:47:13.132Z,7.03
2023-01-22T16:49:58.190Z,6.80
2023-01-22T16:52:43.599Z,7.55
2023-01-22T16:55:29.044Z,7.28
2023-01-22T16:58:14.714Z,6.63
2023-01-22T17:01:00.217Z,6.18
2023-01-22T17:03:45.922Z,6.93
2023-01-22T17:06:34.276Z,7.20
2023-01-22T17:09:25.048Z,6.93
2023-01-22T17:12:10.987Z,6.88
2023-01-22T17:14:56.410Z,7.32
2023-01-22T17:17:41.696Z,6.72
2023-01-22T17:20:27.178Z,6.72
2023-01-22T17:23:12.414Z,6.70
2023-01-22T17:25:58.087Z,6.50
2023-01-22T17:28:45.768Z,6.63
2023-01-22T17:31:31.579Z,7.00
2023-01-22T17:34:18.277Z,6.32
2023-01-22T17:37:10.290Z,6.70
2023-01-22T17:39:55.634Z,6.35
2023-01-22T17:42:41.163Z,6.90
2023-01-22T17:45:26.514Z,7.40
2023-01-22T17:48:11.999Z,6.78
2023-01-22T17:51:02.770Z,6.95
2023-01-22T17:53:50.145Z,6.80
2023-01-22T17:56:37.601Z,6.70
2023-01-22T17:59:23.483Z,6.47
2023-01-22T18:02:10.533Z,6.10
2023-01-22T18:04:56.305Z,6.65
2023-01-22T18:07:41.749Z,6.35
2023-01-22T18:10:28.202Z,7.57
2023-01-22T18:13:13.434Z,7.50
2023-01-22T18:15:59.062Z,7.20
2023-01-22T18:18:45.103Z,7.22
2023-01-22T18:21:30.210Z,6.97
2023-01-22T18:24:16.004Z,7.40
2023-01-22T18:27:02.332Z,7.78
2023-01-22T18:29:47.376Z,7.28
2023-01-22T18:32:35.805Z,8.00
2023-01-22T18:35:21.407Z,7.32
2023-01-22T18:38:07.163Z,7.55
2023-01-22T18:40:53.145Z,7.60
2023-01-22T18:43:38.884Z,7.78
2023-01-22T18:46:28.206Z,8.00
2023-01-22T18:49:17.582Z,7.80
2023-01-22T18:52:03.327Z,8.25
2023-01-22T18:54:48.830Z,8.55
2023-01-22T18:57:35.745Z,7.93
2023-01-22T19:00:21.382Z,8.50
2023-01-22T19:03:06.853Z,8.73
2023-01-22T19:05:52.649Z,7.68
2023-01-22T19:08:39.296Z,8.20
2023-01-22T19:11:25.099Z,8.20
2023-01-22T19:14:14.834Z,7.45
2023-01-22T19:17:00.111Z,7.85
2023-01-22T19:19:45.448Z,7.60
2023-01-22T19:22:31.021Z,7.63
2023-01-22T19:25:16.827Z,7.85
2023-01-22T19:28:02.704Z,7.70
2023-01-22T19:30:48.218Z,7.70
2023-01-22T19:33:33.543Z,8.63
2023-01-22T19:36:20.746Z,8.73
2023-01-22T19:39:11.380Z,9.15
2023-01-22T19:41:58.009Z,8.10
2023-01-22T19:44:44.711Z,8.35
2023-01-22T19:47:29.800Z,7.82
2023-01-22T19:50:15.553Z,8.27
2023-01-22T19:53:00.931Z,9.05
2023-01-22T19:55:46.537Z,8.43
2023-01-22T19:58:32.076Z,8.18
2023-01-22T20:01:18.073Z,8.68
2023-01-22T20:04:05.061Z,8.15
2023-01-22T20:06:54.421Z,7.60
2023-01-22T20:09:39.975Z,7.78
2023-01-22T20:12:25.559Z,8.65
2023-01-22T20:15:11.484Z,8.23
2023-01-22T20:17:57.111Z,8.30
2023-01-22T20:20:42.575Z,8.23
2023-01-22T20:23:29.248Z,8.40
2023-01-22T20:26:15.952Z,7.93
2023-01-22T20:29:01.615Z,8.07
2023-01-22T20:31:51.173Z,9.55
2023-01-22T20:34:36.594Z,8.95
2023-01-22T20:37:22.321Z,7.97
2023-01-22T20:40:08.984Z,7.68
2023-01-22T20:42:54.293Z,7.93
2023-01-22T20:45:39.906Z,8.05
2023-01-22T20:48:25.935Z,6.93
2023-01-22T20:51:16.719Z,7.13
2023-01-22T20:54:02.757Z,7.50
2023-01-22T20:56:48.321Z,7.00
2023-01-22T20:59:33.844Z,7.70
2023-01-22T21:02:19.372Z,7.47
2023-01-22T21:05:04.949Z,6.80
2023-01-22T21:07:50.349Z,7.07
2023-01-22T21:10:35.850Z,7.20
2023-01-22T21:13:23.463Z,7.78
2023-01-22T21:16:14.040Z,6.85
2023-01-22T21:19:00.921Z,7.32
2023-01-22T21:21:47.080Z,7.25
2023-01-22T21:24:33.030Z,7.07
2023-01-22T21:27:18.553Z,6.75
2023-01-22T21:30:04.837Z,7.32
2023-01-22T21:32:51.658Z,7.10
2023-01-22T21:35:37.019Z,6.85
2023-01-22T21:38:22.148Z,6.82
2023-01-22T21:41:10.215Z,7.20
2023-01-22T21:44:14.086Z,7.32
2023-01-22T21:46:59.466Z,7.05
2023-01-22T21:49:46.853Z,6.63
2023-01-22T21:52:32.170Z,7.28
2023-01-22T21:55:17.464Z,7.65
2023-01-22T21:58:04.172Z,7.32
2023-01-22T22:00:49.799Z,7.03
2023-01-22T22:03:35.687Z,7.22
2023-01-22T22:06:21.051Z,7.22
2023-01-22T22:09:10.108Z,7.47
2023-01-22T22:11:59.506Z,6.88
2023-01-22T22:14:44.921Z,7.65
2023-01-22T22:17:30.441Z,7.90
2023-01-22T22:20:16.215Z,6.72
2023-01-22T22:23:01.460Z,7.43
2023-01-22T22:25:48.737Z,7.30
2023-01-22T22:28:35.154Z,7.97
2023-01-22T22:31:21.309Z,7.22
2023-01-22T22:34:07.064Z,7.57
2023-01-22T22:36:52.584Z,7.60
2023-01-22T22:39:38.919Z,7.43
2023-01-22T22:42:24.465Z,7.43
2023-01-22T22:45:10.349Z,8.10
2023-01-22T22:47:56.451Z,7.22
2023-01-22T22:50:43.135Z,6.70
2023-01-22T22:53:28.784Z,7.35
2023-01-22T22:56:14.357Z,7.32
2023-01-22T22:59:00.996Z,6.97
2023-01-22T23:01:47.884Z,8.05
2023-01-22T23:04:33.833Z,7.38
2023-01-22T23:07:19.524Z,7.70
2023-01-22T23:10:05.656Z,8.05
2023-01-22T23:12:50.993Z,7.40
2023-01-22T23:15:36.542Z,8.10
2023-01-22T23:18:21.862Z,6.75
2023-01-22T23:21:09.998Z,7.05
2023-01-22T23:23:56.158Z,8.40
2023-01-22T23:26:43.068Z,7.88
2023-01-22T23:29:29.333Z,7.68
2023-01-22T23:32:14.957Z,7.22
2023-01-22T23:35:00.557Z,6.40
2023-01-22T23:37:46.096Z,7.35
2023-01-22T23:40:33.612Z,7.45
2023-01-22T23:43:19.163Z,7.38
2023-01-22T23:46:15.598Z,7.25
2023-01-22T23:49:00.835Z,7.35
2023-01-22T23:51:46.105Z,7.60
2023-01-22T23:54:31.556Z,7.82
2023-01-22T23:57:17.098Z,7.43
